Time;durP1;ratioP1;P1;durP2;ratioP2;P2;SDS_P1;SDS_P2;PMS_P1;PMS_P2;Temp;Humidity;BMP_temperature;BMP_pressure;BME280_temperature;BME280_humidity;BME280_pressure;Samples;Min_cycle;Max_cycle;Signal;HPM_P1;HPM_P2
2022/09/18 00:02:06;;;;;;;11.48;2.08;;;13.90;99.90;;;;;;4923356;29;20032;-90
2022/09/18 00:04:32;;;;;;;12.35;1.95;;;13.90;99.90;;;;;;4903896;29;20051;-89
2022/09/18 00:06:58;;;;;;;9.13;1.98;;;13.90;99.90;;;;;;4903587;29;20033;-91
2022/09/18 00:09:23;;;;;;;6.35;1.30;;;13.90;99.90;;;;;;4887926;29;20032;-89
2022/09/18 00:11:50;;;;;;;9.63;1.92;;;13.90;99.90;;;;;;4920732;29;20079;-90
2022/09/18 00:14:19;;;;;;;8.43;1.90;;;13.80;99.90;;;;;;4919530;29;20465;-90
2022/09/18 00:16:45;;;;;;;7.40;1.75;;;13.80;99.90;;;;;;4903838;29;20026;-90
2022/09/18 00:19:11;;;;;;;7.65;1.50;;;13.90;99.90;;;;;;4903669;29;20032;-90
2022/09/18 00:21:40;;;;;;;7.22;1.80;;;13.80;99.90;;;;;;4903483;29;20575;-90
2022/09/18 00:24:06;;;;;;;6.50;1.40;;;13.80;99.90;;;;;;4919517;29;20020;-91
2022/09/18 00:26:32;;;;;;;6.35;1.58;;;13.80;99.90;;;;;;4903467;29;20080;-91
2022/09/18 00:28:58;;;;;;;8.27;2.15;;;13.80;99.90;;;;;;4903664;29;20032;-91
2022/09/18 00:31:30;;;;;;;10.27;1.60;;;13.80;99.90;;;;;;4904013;29;20177;-91
2022/09/18 00:34:01;;;;;;;8.05;1.60;;;13.80;99.90;;;;;;4919117;29;20028;-90
2022/09/18 00:36:28;;;;;;;7.63;1.58;;;13.80;99.90;;;;;;4903131;29;20079;-90
2022/09/18 00:38:55;;;;;;;6.10;1.52;;;13.80;99.90;;;;;;4900394;29;20064;-91
2022/09/18 00:41:37;;;;;;;6.03;1.23;;;13.80;99.90;;;;;;4900396;29;20037;-89
2022/09/18 00:44:40;;;;;;;7.28;1.58;;;13.80;99.90;;;;;;4901285;29;20028;-91
2022/09/18 00:47:09;;;;;;;13.13;1.70;;;13.80;99.90;;;;;;4920339;29;20035;-90
2022/09/18 00:49:55;;;;;;;9.43;1.92;;;13.80;99.90;;;;;;4919677;29;20096;-91
2022/09/18 00:52:25;;;;;;;5.40;1.75;;;13.80;99.90;;;;;;4916736;29;20466;-91
2022/09/18 00:55:03;;;;;;;9.13;1.52;;;13.80;99.90;;;;;;4900402;29;20108;-91
2022/09/18 00:57:34;;;;;;;6.75;2.92;;;13.80;99.90;;;;;;4915283;29;20036;-91
2022/09/18 01:00:06;;;;;;;8.52;2.08;;;13.70;99.90;;;;;;4901156;29;20039;-90
2022/09/18 01:02:31;;;;;;;8.82;1.48;;;13.80;99.90;;;;;;4899434;29;20036;-90
2022/09/18 01:04:57;;;;;;;10.35;2.03;;;13.70;99.90;;;;;;4899725;29;20037;-91
2022/09/18 01:08:07;;;;;;;11.13;1.80;;;13.80;99.90;;;;;;4899741;29;20037;-91
2022/09/18 01:10:47;;;;;;;9.10;1.85;;;13.70;99.90;;;;;;4873087;29;20079;-90
2022/09/18 01:13:33;;;;;;;9.48;2.67;;;13.70;99.90;;;;;;4915110;29;20115;-89
2022/09/18 01:16:26;;;;;;;11.02;1.60;;;13.70;99.90;;;;;;4900787;29;20056;-90
2022/09/18 01:19:33;;;;;;;6.95;1.58;;;13.70;99.90;;;;;;4899484;29;20056;-91
2022/09/18 01:22:23;;;;;;;5.45;1.17;;;13.70;99.90;;;;;;4907715;29;20040;-91
2022/09/18 01:25:19;;;;;;;12.60;1.75;;;13.70;99.90;;;;;;4915186;29;20064;-90
2022/09/18 01:28:13;;;;;;;6.55;1.70;;;13.70;99.90;;;;;;4899320;29;20177;-90
2022/09/18 01:30:42;;;;;;;6.43;1.52;;;13.70;99.90;;;;;;4899284;29;20044;-91
2022/09/18 01:33:38;;;;;;;7.40;1.15;;;13.70;99.90;;;;;;4899112;29;20363;-89
2022/09/18 01:36:08;;;;;;;7.38;1.70;;;13.70;99.90;;;;;;4897371;29;20382;-91
2022/09/18 01:38:49;;;;;;;9.82;1.45;;;13.70;99.90;;;;;;4898889;29;20580;-90
2022/09/18 01:41:21;;;;;;;6.63;1.40;;;13.70;99.90;;;;;;4900211;29;20024;-90
2022/09/18 01:43:51;;;;;;;6.07;1.23;;;13.70;99.90;;;;;;4898769;29;20071;-90
2022/09/18 01:46:19;;;;;;;10.93;2.30;;;13.70;99.90;;;;;;4900008;29;20025;-90
2022/09/18 01:48:51;;;;;;;10.10;2.08;;;13.70;99.90;;;;;;4883293;29;20028;-90
2022/09/18 01:51:22;;;;;;;8.48;2.03;;;13.70;99.90;;;;;;4914586;29;20044;-90
2022/09/18 01:53:53;;;;;;;4.45;1.20;;;13.70;99.90;;;;;;4899688;29;20028;-90
2022/09/18 01:56:23;;;;;;;;;;;13.60;99.90;;;;;;4899929;29;20413;-90
2022/09/18 01:58:51;;;;;;;6.95;1.35;;;13.60;99.90;;;;;;4914295;29;19998;-90
2022/09/18 02:01:19;;;;;;;8.45;1.33;;;13.60;99.90;;;;;;4898185;29;20024;-90
2022/09/18 02:03:50;;;;;;;5.55;1.35;;;13.60;99.90;;;;;;4898603;29;20446;-91
2022/09/18 02:06:35;;;;;;;4.57;1.33;;;13.60;99.90;;;;;;4898441;29;20036;-89
2022/09/18 02:09:01;;;;;;;9.68;1.80;;;13.60;99.90;;;;;;4899731;29;20037;-89
2022/09/18 02:11:27;;;;;;;8.82;1.75;;;13.60;99.90;;;;;;4914493;29;20043;-88
2022/09/18 02:14:04;;;;;;;9.63;2.10;;;13.60;99.90;;;;;;4898292;29;20037;-89
2022/09/18 02:16:54;;;;;;;9.65;1.90;;;13.60;99.90;;;;;;4898955;29;20020;-89
2022/09/18 02:20:00;;;;;;;6.70;1.30;;;13.60;99.90;;;;;;4899638;29;20033;-88
2022/09/18 02:22:31;;;;;;;8.63;1.23;;;13.60;99.90;;;;;;4863345;29;20498;-89
2022/09/18 02:25:01;;;;;;;10.43;2.00;;;13.60;99.90;;;;;;4918699;29;20037;-88
2022/09/18 02:27:29;;;;;;;5.50;1.05;;;13.60;99.90;;;;;;4911819;29;20021;-88
2022/09/18 02:29:56;;;;;;;7.25;1.50;;;13.60;99.90;;;;;;4908173;29;20127;-86
2022/09/18 02:32:24;;;;;;;10.00;1.83;;;13.60;99.90;;;;;;4907925;29;20116;-89
2022/09/18 02:34:52;;;;;;;5.93;1.50;;;13.60;99.90;;;;;;4894851;29;20021;-88
2022/09/18 02:37:52;;;;;;;8.52;1.38;;;13.60;99.90;;;;;;4903961;29;20053;-89
2022/09/18 02:40:43;;;;;;;7.20;1.40;;;13.50;99.90;;;;;;4917586;29;20048;-88
2022/09/18 02:43:31;;;;;;;7.30;1.67;;;13.50;99.90;;;;;;4917028;29;20028;-88
2022/09/18 02:46:27;;;;;;;7.78;1.50;;;13.50;99.90;;;;;;4917554;29;20032;-89
2022/09/18 02:49:06;;;;;;;12.35;1.50;;;13.50;99.90;;;;;;4900926;29;20032;-87
2022/09/18 02:51:42;;;;;;;8.20;1.30;;;13.50;99.90;;;;;;4917898;29;20035;-87
2022/09/18 02:54:11;;;;;;;8.18;1.88;;;13.50;99.90;;;;;;4901383;29;20469;-88
2022/09/18 02:56:52;;;;;;;10.25;1.80;;;13.50;99.90;;;;;;4917863;29;20055;-88
2022/09/18 02:59:32;;;;;;;7.50;1.20;;;13.50;99.90;;;;;;4901899;29;20476;-88
2022/09/18 03:01:58;;;;;;;12.02;2.08;;;13.50;99.90;;;;;;4901708;29;20038;-88
2022/09/18 03:04:26;;;;;;;8.13;1.73;;;13.50;99.90;;;;;;4901462;29;20039;-88
2022/09/18 03:06:52;;;;;;;9.52;2.10;;;13.50;99.90;;;;;;4903470;29;20024;-89
2022/09/18 03:09:18;;;;;;;5.88;1.45;;;13.50;99.90;;;;;;4889161;29;20035;-89
2022/09/18 03:11:44;;;;;;;5.90;1.58;;;13.50;99.90;;;;;;4905044;29;20044;-89
2022/09/18 03:14:10;;;;;;;8.82;1.63;;;13.50;99.90;;;;;;4889752;29;20039;-88
2022/09/18 03:16:36;;;;;;;8.02;2.05;;;13.50;99.90;;;;;;4921583;29;20024;-88
2022/09/18 03:19:02;;;;;;;5.88;1.23;;;13.50;99.90;;;;;;4889274;29;20130;-88
2022/09/18 03:21:28;;;;;;;8.40;1.27;;;13.50;99.90;;;;;;4905035;29;20060;-88
2022/09/18 03:23:54;;;;;;;5.60;1.40;;;13.50;99.90;;;;;;4920513;29;20071;-88
2022/09/18 03:26:20;;;;;;;7.53;1.40;;;13.50;99.90;;;;;;4889785;29;20024;-88
2022/09/18 03:28:46;;;;;;;5.68;1.25;;;13.50;99.90;;;;;;4904991;29;20050;-88
2022/09/18 03:31:12;;;;;;;8.25;1.30;;;13.60;99.90;;;;;;4905494;29;20354;-88
2022/09/18 03:33:38;;;;;;;10.90;2.13;;;13.50;99.90;;;;;;4888573;29;20035;-88
2022/09/18 03:36:07;;;;;;;4.07;1.08;;;13.50;99.90;;;;;;4904508;29;20039;-88
2022/09/18 03:38:33;;;;;;;6.88;1.50;;;13.60;99.90;;;;;;4904538;29;20059;-88
2022/09/18 03:40:59;;;;;;;6.75;1.00;;;13.60;99.90;;;;;;4904293;29;20028;-88
2022/09/18 03:43:26;;;;;;;8.32;1.75;;;13.60;99.90;;;;;;4904216;29;20142;-88
2022/09/18 03:45:51;;;;;;;5.90;1.10;;;13.50;99.90;;;;;;4894660;29;20032;-87
2022/09/18 03:48:19;;;;;;;8.02;1.45;;;13.60;99.90;;;;;;4922020;29;20499;-88
2022/09/18 03:50:47;;;;;;;8.90;2.08;;;13.50;99.90;;;;;;4904894;29;20040;-88
2022/09/18 03:53:12;;;;;;;6.05;1.10;;;13.50;99.90;;;;;;4921663;29;20358;-88
2022/09/18 03:55:38;;;;;;;8.40;1.30;;;13.60;99.90;;;;;;4922429;29;20027;-88
2022/09/18 03:58:04;;;;;;;8.90;1.23;;;13.50;99.90;;;;;;4889540;29;20115;-88
2022/09/18 04:00:30;;;;;;;7.47;1.50;;;13.50;99.90;;;;;;4922216;29;20032;-88
2022/09/18 04:02:58;;;;;;;8.48;1.38;;;13.50;99.90;;;;;;4921847;29;20373;-88
2022/09/18 04:05:23;;;;;;;5.75;1.20;;;13.50;99.90;;;;;;4890509;29;20091;-88
2022/09/18 04:07:49;;;;;;;5.65;1.30;;;13.50;99.90;;;;;;4890973;29;20485;-88
2022/09/18 04:10:15;;;;;;;8.02;1.30;;;13.40;99.90;;;;;;4921967;29;20035;-88
2022/09/18 04:12:44;;;;;;;10.10;1.58;;;13.50;99.90;;;;;;4890282;29;20036;-88
2022/09/18 04:15:10;;;;;;;19.83;2.95;;;13.40;99.90;;;;;;4927183;29;20020;-88
2022/09/18 04:17:35;;;;;;;8.95;1.38;;;13.40;99.90;;;;;;4915122;29;20028;-88
2022/09/18 04:20:02;;;;;;;5.75;0.90;;;13.40;99.90;;;;;;4898662;29;20032;-88
2022/09/18 04:22:28;;;;;;;5.22;1.35;;;13.40;99.90;;;;;;4901107;29;20032;-89
2022/09/18 04:24:54;;;;;;;5.78;1.10;;;13.30;99.90;;;;;;4929296;29;20392;-88
2022/09/18 04:27:20;;;;;;;6.53;1.55;;;13.30;99.90;;;;;;4906685;29;20489;-88
2022/09/18 04:29:46;;;;;;;9.13;1.67;;;13.30;99.90;;;;;;4922416;29;20073;-88
2022/09/18 04:32:12;;;;;;;7.10;1.27;;;13.30;99.90;;;;;;4907444;29;20063;-89
2022/09/18 04:34:38;;;;;;;7.78;1.40;;;13.20;99.90;;;;;;4923295;29;20064;-89
2022/09/18 04:37:03;;;;;;;5.43;1.10;;;13.20;99.90;;;;;;4922712;29;20361;-88
2022/09/18 04:39:31;;;;;;;6.43;1.20;;;13.20;99.90;;;;;;4920492;29;20063;-87
2022/09/18 04:41:58;;;;;;;6.60;1.23;;;13.20;99.90;;;;;;4905877;29;20024;-87
2022/09/18 04:44:24;;;;;;;8.50;1.42;;;13.20;99.90;;;;;;4891633;29;20088;-88
2022/09/18 04:46:49;;;;;;;9.95;1.48;;;13.20;99.90;;;;;;4895106;29;20028;-88
2022/09/18 04:49:15;;;;;;;5.47;0.93;;;13.20;99.90;;;;;;4927581;29;20119;-88
2022/09/18 04:51:42;;;;;;;7.63;1.58;;;13.20;99.90;;;;;;4899606;29;20113;-88
2022/09/18 04:54:08;;;;;;;5.28;0.98;;;13.20;99.90;;;;;;4899000;29;20066;-88
2022/09/18 04:56:34;;;;;;;5.55;1.10;;;13.20;99.90;;;;;;4914539;29;20051;-88
2022/09/18 04:59:00;;;;;;;6.10;1.40;;;13.20;99.90;;;;;;4934364;29;20473;-87
2022/09/18 05:01:26;;;;;;;5.90;1.10;;;13.20;99.90;;;;;;4913262;29;20039;-88
2022/09/18 05:03:52;;;;;;;6.85;1.40;;;13.20;99.90;;;;;;4912435;29;20108;-88
2022/09/18 05:06:18;;;;;;;7.18;1.10;;;13.20;99.90;;;;;;4922342;29;20048;-88
2022/09/18 05:08:43;;;;;;;7.90;1.42;;;13.20;99.90;;;;;;4888929;29;20036;-88
2022/09/18 05:11:09;;;;;;;6.10;1.17;;;13.10;99.90;;;;;;4904684;29;20491;-88
2022/09/18 05:13:35;;;;;;;8.25;1.27;;;13.20;99.90;;;;;;4903180;29;20046;-87
2022/09/18 05:16:00;;;;;;;7.45;1.30;;;13.20;99.90;;;;;;4888561;29;20036;-88
2022/09/18 05:18:26;;;;;;;5.45;1.10;;;13.20;99.90;;;;;;4903354;29;20072;-88
2022/09/18 05:20:53;;;;;;;10.05;1.48;;;13.10;99.90;;;;;;4919381;29;20465;-88
2022/09/18 05:23:20;;;;;;;7.43;1.13;;;13.10;99.90;;;;;;4918769;29;20032;-88
2022/09/18 05:25:45;;;;;;;8.98;1.45;;;13.20;99.90;;;;;;4919596;29;20028;-88
2022/09/18 05:28:14;;;;;;;8.43;1.27;;;13.10;99.90;;;;;;4887047;29;20036;-88
2022/09/18 05:30:40;;;;;;;4.22;1.38;;;13.10;99.90;;;;;;4902403;29;20087;-87
2022/09/18 05:33:09;;;;;;;6.93;1.20;;;13.10;99.90;;;;;;4919833;29;20028;-88
2022/09/18 05:35:36;;;;;;;8.90;1.10;;;13.10;99.90;;;;;;4902254;29;20068;-88
2022/09/18 05:38:03;;;;;;;7.13;1.30;;;13.10;99.90;;;;;;4918870;29;20131;-88
2022/09/18 05:40:33;;;;;;;6.65;1.20;;;13.10;99.90;;;;;;4917633;29;20027;-88
2022/09/18 05:42:59;;;;;;;5.57;1.38;;;13.10;99.90;;;;;;4886613;29;20029;-88
2022/09/18 05:45:25;;;;;;;9.48;2.20;;;13.10;99.90;;;;;;4902212;29;20043;-88
2022/09/18 05:47:59;;;;;;;8.13;1.52;;;13.10;99.90;;;;;;4919266;29;20024;-88
2022/09/18 05:50:26;;;;;;;6.03;1.33;;;13.10;99.90;;;;;;4901698;29;20032;-88
2022/09/18 05:52:59;;;;;;;12.45;1.63;;;13.10;99.90;;;;;;4902715;29;20107;-88
2022/09/18 05:55:27;;;;;;;4.53;1.10;;;13.10;99.90;;;;;;4902095;29;20036;-88
2022/09/18 05:57:56;;;;;;;5.63;0.93;;;13.10;99.90;;;;;;4904133;29;20024;-88
2022/09/18 06:00:24;;;;;;;5.38;0.80;;;13.10;99.90;;;;;;4896487;29;20043;-88
2022/09/18 06:02:57;;;;;;;4.65;0.88;;;13.10;99.90;;;;;;4936364;29;20072;-88
2022/09/18 06:05:26;;;;;;;4.13;2.03;;;13.10;99.90;;;;;;4937796;29;20028;-88
2022/09/18 06:07:52;;;;;;;7.70;0.95;;;13.10;99.90;;;;;;4918952;29;20021;-88
2022/09/18 06:10:21;;;;;;;7.38;1.50;;;13.10;99.90;;;;;;4934255;29;20047;-88
2022/09/18 06:12:46;;;;;;;2.78;0.93;;;13.10;99.90;;;;;;4897869;29;20043;-87
2022/09/18 06:15:12;;;;;;;4.93;1.15;;;13.10;99.90;;;;;;4908294;29;20028;-88
2022/09/18 06:17:39;;;;;;;3.72;0.90;;;13.10;99.90;;;;;;4887160;29;20067;-89
2022/09/18 06:20:07;;;;;;;5.97;1.10;;;13.10;99.90;;;;;;4901433;29;20122;-88
2022/09/18 06:22:33;;;;;;;5.68;0.93;;;13.10;99.90;;;;;;4886597;29;20473;-88
2022/09/18 06:24:58;;;;;;;4.28;1.00;;;13.10;99.90;;;;;;4901370;29;20123;-87
2022/09/18 06:27:24;;;;;;;5.53;1.00;;;13.10;99.90;;;;;;4918093;29;20548;-88
2022/09/18 06:29:51;;;;;;;4.97;1.05;;;13.10;99.90;;;;;;4885904;29;20029;-88
2022/09/18 06:32:19;;;;;;;4.25;0.90;;;13.10;99.90;;;;;;4901327;29;20084;-88
2022/09/18 06:34:45;;;;;;;4.07;0.95;;;13.10;99.90;;;;;;4885475;29;20036;-88
2022/09/18 06:37:11;;;;;;;8.27;1.27;;;13.00;99.90;;;;;;4885381;29;20024;-88
2022/09/18 06:39:37;;;;;;;4.63;0.90;;;13.10;99.90;;;;;;4918172;29;20056;-88
2022/09/18 06:42:04;;;;;;;5.95;1.00;;;13.10;99.90;;;;;;4921001;29;20031;-88
2022/09/18 06:44:30;;;;;;;6.40;1.45;;;13.10;99.90;;;;;;4905200;29;20028;-88
2022/09/18 06:46:58;;;;;;;4.47;0.88;;;13.10;99.90;;;;;;4904603;29;20031;-87
2022/09/18 06:49:24;;;;;;;4.68;0.90;;;13.10;99.90;;;;;;4920695;29;20075;-87
2022/09/18 06:51:50;;;;;;;3.72;0.95;;;13.10;99.90;;;;;;4904494;29;20095;-88
2022/09/18 06:54:16;;;;;;;7.55;1.08;;;13.10;99.90;;;;;;4889067;29;20032;-88
2022/09/18 06:56:42;;;;;;;3.70;0.73;;;13.10;99.90;;;;;;4920411;29;20457;-87
2022/09/18 06:59:07;;;;;;;5.68;1.67;;;13.10;99.90;;;;;;4904112;29;20107;-87
2022/09/18 07:01:33;;;;;;;6.43;1.02;;;13.10;99.90;;;;;;4920327;29;20031;-87
2022/09/18 07:03:59;;;;;;;5.30;1.30;;;13.10;99.90;;;;;;4889374;29;20032;-87
2022/09/18 07:06:25;;;;;;;3.47;0.63;;;13.10;99.90;;;;;;4889650;29;20031;-87
2022/09/18 07:08:51;;;;;;;3.53;0.93;;;13.10;99.90;;;;;;4925148;29;20044;-88
2022/09/18 07:11:17;;;;;;;3.20;0.63;;;13.10;99.90;;;;;;4907688;29;20079;-88
2022/09/18 07:13:44;;;;;;;6.63;0.95;;;13.10;99.90;;;;;;4904902;29;20039;-88
2022/09/18 07:16:13;;;;;;;5.80;0.77;;;13.10;99.90;;;;;;4890087;29;20080;-87
2022/09/18 07:18:42;;;;;;;4.80;0.95;;;13.10;99.90;;;;;;4890208;29;20043;-87
2022/09/18 07:21:07;;;;;;;4.50;0.93;;;13.20;99.90;;;;;;4889621;29;20060;-88
2022/09/18 07:23:34;;;;;;;6.15;0.90;;;13.20;99.90;;;;;;4904574;29;20643;-87
2022/09/18 07:26:00;;;;;;;3.75;0.90;;;13.20;99.90;;;;;;4920795;29;20457;-87
2022/09/18 07:28:26;;;;;;;2.15;0.70;;;13.20;99.90;;;;;;4888729;29;20095;-87
2022/09/18 07:30:55;;;;;;;5.93;1.00;;;13.20;99.90;;;;;;4890233;29;20092;-87
2022/09/18 07:33:21;;;;;;;5.10;1.38;;;13.20;99.90;;;;;;4905647;29;20051;-88
2022/09/18 07:35:47;;;;;;;7.55;1.55;;;13.20;99.90;;;;;;4888893;29;20470;-87
2022/09/18 07:38:13;;;;;;;6.60;1.00;;;13.30;99.90;;;;;;4900465;29;20044;-87
2022/09/18 07:40:41;;;;;;;7.13;1.10;;;13.30;99.90;;;;;;4885552;29;20036;-87
2022/09/18 07:43:09;;;;;;;4.60;1.00;;;13.30;99.90;;;;;;4885202;29;20033;-87
2022/09/18 07:45:35;;;;;;;6.40;0.98;;;13.40;99.90;;;;;;4884781;29;20107;-88
2022/09/18 07:48:02;;;;;;;5.50;0.93;;;13.40;99.90;;;;;;4885141;29;20029;-87
2022/09/18 07:50:28;;;;;;;4.20;0.93;;;13.40;99.90;;;;;;4899936;29;20043;-88
2022/09/18 07:52:56;;;;;;;3.30;1.08;;;13.40;99.90;;;;;;4899371;29;20119;-87
2022/09/18 07:55:23;;;;;;;6.55;1.73;;;13.40;99.90;;;;;;4900389;29;20029;-87
2022/09/18 07:57:59;;;;;;;4.75;1.02;;;13.40;99.90;;;;;;4900279;29;20028;-87
2022/09/18 08:00:27;;;;;;;4.63;0.88;;;13.50;99.90;;;;;;4901408;29;20037;-88
2022/09/18 08:03:11;;;;;;;5.95;0.80;;;13.50;99.90;;;;;;4900051;29;20029;-88
2022/09/18 08:05:37;;;;;;;6.05;1.00;;;13.50;99.90;;;;;;4900368;29;20025;-87
2022/09/18 08:08:07;;;;;;;8.48;1.63;;;13.50;99.90;;;;;;4884641;29;20043;-87
2022/09/18 08:10:34;;;;;;;4.18;1.00;;;13.60;99.90;;;;;;4900011;29;20120;-88
2022/09/18 08:13:01;;;;;;;4.03;0.90;;;13.60;99.90;;;;;;4901638;29;20107;-87
2022/09/18 08:15:28;;;;;;;6.72;1.00;;;13.60;99.90;;;;;;4900218;29;20036;-88
2022/09/18 08:17:54;;;;;;;5.60;1.00;;;13.60;99.90;;;;;;4901215;29;20037;-88
2022/09/18 08:20:20;;;;;;;5.03;1.35;;;13.60;99.90;;;;;;4900019;29;20096;-89
2022/09/18 08:22:46;;;;;;;7.88;1.42;;;13.60;99.90;;;;;;4884520;29;20418;-88
2022/09/18 08:25:12;;;;;;;6.30;1.20;;;13.60;99.90;;;;;;4884913;29;20029;-88
2022/09/18 08:27:38;;;;;;;7.10;1.25;;;13.70;99.90;;;;;;4901034;29;20035;-88
2022/09/18 08:30:06;;;;;;;7.15;1.25;;;13.70;99.90;;;;;;4900166;29;20051;-88
2022/09/18 08:32:35;;;;;;;3.70;1.05;;;13.70;99.90;;;;;;4884237;29;20033;-88
2022/09/18 08:35:00;;;;;;;4.88;1.00;;;13.70;99.90;;;;;;4899898;29;20032;-88
2022/09/18 08:37:27;;;;;;;6.43;1.27;;;13.70;99.90;;;;;;4884701;29;20037;-89
2022/09/18 08:39:53;;;;;;;10.07;1.55;;;13.70;99.90;;;;;;4899857;29;20068;-88
2022/09/18 08:42:21;;;;;;;4.90;1.00;;;13.70;99.90;;;;;;4884059;29;20032;-88
2022/09/18 08:44:59;;;;;;;6.68;1.20;;;13.70;99.90;;;;;;4915963;29;20025;-88
2022/09/18 08:47:34;;;;;;;5.30;1.10;;;13.70;99.90;;;;;;4900071;29;20060;-89
2022/09/18 08:50:23;;;;;;;3.80;0.93;;;13.70;99.90;;;;;;4899861;29;20032;-88
2022/09/18 08:53:13;;;;;;;5.68;1.23;;;13.70;99.90;;;;;;4901735;29;20039;-89
2022/09/18 08:55:43;;;;;;;8.63;2.00;;;13.70;99.90;;;;;;4899818;29;20025;-89
2022/09/18 08:58:16;;;;;;;5.47;1.63;;;13.70;99.90;;;;;;4899634;29;20060;-89
2022/09/18 09:00:52;;;;;;;4.18;1.00;;;13.70;99.90;;;;;;4915135;29;20366;-88
2022/09/18 09:03:43;;;;;;;5.97;1.30;;;13.60;99.90;;;;;;4900725;29;20067;-89
2022/09/18 09:06:29;;;;;;;5.40;0.90;;;13.70;99.90;;;;;;4915422;29;20079;-89
2022/09/18 09:09:27;;;;;;;4.28;1.20;;;13.70;99.90;;;;;;4915034;29;20293;-89
2022/09/18 09:12:15;;;;;;;4.93;1.23;;;13.70;99.90;;;;;;4900171;29;20556;-89
2022/09/18 09:15:16;;;;;;;5.97;1.27;;;13.70;99.90;;;;;;4900710;29;20032;-89
2022/09/18 09:17:45;;;;;;;;;;;13.70;99.90;;;;;;4900835;29;20032;-89
2022/09/18 09:20:19;;;;;;;5.47;1.02;;;13.70;99.90;;;;;;4914836;29;20041;-89
2022/09/18 09:23:01;;;;;;;7.18;1.40;;;13.70;99.90;;;;;;4900397;29;20545;-89
2022/09/18 09:25:30;;;;;;;4.80;1.00;;;13.80;99.90;;;;;;4899524;29;20032;-89
2022/09/18 09:28:23;;;;;;;3.92;1.00;;;13.80;99.90;;;;;;4900152;29;20029;-88
2022/09/18 09:30:55;;;;;;;6.68;1.30;;;13.80;99.90;;;;;;4915452;29;20068;-88
2022/09/18 09:33:26;;;;;;;4.40;1.10;;;13.80;99.90;;;;;;4899209;29;20027;-88
2022/09/18 09:35:57;;;;;;;3.70;1.20;;;13.80;99.90;;;;;;4899787;29;20079;-88
2022/09/18 09:39:01;;;;;;;6.10;1.15;;;13.80;99.90;;;;;;4921132;29;20076;-88
2022/09/18 09:41:32;;;;;;;7.20;1.27;;;13.90;99.90;;;;;;4936592;29;20043;-88
2022/09/18 09:44:38;;;;;;;6.00;1.30;;;13.80;99.90;;;;;;4919553;29;20040;-89
2022/09/18 09:47:26;;;;;;;8.95;1.33;;;13.90;99.90;;;;;;4918149;29;20043;-89
2022/09/18 09:50:05;;;;;;;8.55;1.48;;;13.90;99.90;;;;;;4919186;29;20016;-87
2022/09/18 09:52:31;;;;;;;2.42;0.75;;;13.90;99.90;;;;;;4916910;29;20036;-88
2022/09/18 09:55:24;;;;;;;4.70;1.33;;;13.90;99.90;;;;;;4907986;29;20024;-87
2022/09/18 09:58:01;;;;;;;4.20;1.20;;;13.90;99.90;;;;;;4876726;29;20067;-88
2022/09/18 10:00:33;;;;;;;4.85;1.10;;;13.90;99.90;;;;;;4901871;29;20032;-88
2022/09/18 10:03:21;;;;;;;4.63;1.00;;;13.90;99.90;;;;;;4918839;29;20156;-88
2022/09/18 10:05:58;;;;;;;6.53;1.30;;;13.90;99.90;;;;;;4901975;29;20063;-88
2022/09/18 10:08:35;;;;;;;1.48;0.70;;;13.90;99.90;;;;;;4901840;29;20028;-87
2022/09/18 10:11:07;;;;;;;5.05;1.38;;;13.90;99.90;;;;;;4901833;29;20465;-88
2022/09/18 10:13:50;;;;;;;2.33;0.80;;;13.90;99.90;;;;;;4918375;29;20477;-89
2022/09/18 10:16:23;;;;;;;4.70;0.90;;;13.90;99.90;;;;;;4905779;29;20099;-88
2022/09/18 10:18:49;;;;;;;7.05;1.15;;;14.00;99.90;;;;;;4907758;29;20028;-88
2022/09/18 10:21:15;;;;;;;7.03;1.08;;;14.00;99.90;;;;;;4907640;29;20127;-87
2022/09/18 10:23:46;;;;;;;3.65;1.15;;;14.00;99.90;;;;;;4924203;29;20035;-88
2022/09/18 10:26:24;;;;;;;6.60;1.13;;;14.10;99.90;;;;;;4908347;29;20028;-88
2022/09/18 10:28:50;;;;;;;6.88;1.20;;;14.10;99.90;;;;;;4907860;29;20040;-88
2022/09/18 10:31:16;;;;;;;3.97;1.00;;;14.10;99.90;;;;;;4892730;29;20036;-88
2022/09/18 10:33:45;;;;;;;8.73;1.58;;;14.10;99.90;;;;;;4907626;29;20064;-89
2022/09/18 10:36:21;;;;;;;3.78;0.90;;;14.20;99.90;;;;;;4907527;29;20059;-88
2022/09/18 10:38:47;;;;;;;8.55;1.13;;;14.20;99.90;;;;;;4904422;29;20051;-89
2022/09/18 10:41:27;;;;;;;7.63;1.00;;;14.20;99.90;;;;;;4888666;29;20085;-88
2022/09/18 10:43:58;;;;;;;5.32;1.00;;;14.20;99.90;;;;;;4904848;29;20488;-88
2022/09/18 10:46:32;;;;;;;6.15;0.88;;;14.20;99.90;;;;;;4920558;29;20532;-88
2022/09/18 10:49:17;;;;;;;3.38;1.10;;;14.20;99.90;;;;;;4905794;29;20043;-87
2022/09/18 10:51:45;;;;;;;6.07;1.27;;;14.20;99.90;;;;;;4906264;29;20046;-88
2022/09/18 10:54:21;;;;;;;4.15;1.00;;;14.30;99.90;;;;;;4908387;29;20037;-89
2022/09/18 10:56:48;;;;;;;5.88;1.25;;;14.30;99.90;;;;;;4907035;29;20025;-89
2022/09/18 10:59:25;;;;;;;6.43;0.90;;;14.30;99.90;;;;;;4920750;29;20036;-89
2022/09/18 11:02:00;;;;;;;3.42;1.15;;;14.30;99.90;;;;;;4920444;29;20033;-89
2022/09/18 11:04:27;;;;;;;6.35;1.27;;;14.30;99.90;;;;;;4904265;29;20055;-89
2022/09/18 11:06:55;;;;;;;6.00;1.30;;;14.30;99.90;;;;;;4905534;29;20031;-89
2022/09/18 11:09:31;;;;;;;4.63;1.33;;;14.40;99.90;;;;;;4888424;29;20041;-89
2022/09/18 11:11:57;;;;;;;6.65;1.40;;;14.40;99.90;;;;;;4904463;29;20067;-89
2022/09/18 11:14:26;;;;;;;7.32;1.58;;;14.40;99.90;;;;;;4888641;29;20033;-89
2022/09/18 11:16:55;;;;;;;9.15;1.67;;;14.40;99.90;;;;;;4904523;29;20064;-89
2022/09/18 11:19:31;;;;;;;6.43;1.58;;;14.50;99.90;;;;;;4904084;29;20039;-89
2022/09/18 11:22:02;;;;;;;8.35;1.33;;;14.50;99.90;;;;;;4904743;29;20092;-89
2022/09/18 11:24:31;;;;;;;4.57;1.27;;;14.50;99.90;;;;;;4904306;29;20131;-89
2022/09/18 11:26:59;;;;;;;6.88;1.45;;;14.50;99.90;;;;;;4902223;29;20035;-89
2022/09/18 11:29:31;;;;;;;6.43;1.20;;;14.50;99.90;;;;;;4901503;29;20039;-89
2022/09/18 11:32:30;;;;;;;7.68;1.25;;;14.50;99.90;;;;;;4901050;29;20036;-87
2022/09/18 11:35:00;;;;;;;7.47;1.40;;;14.50;99.90;;;;;;4870963;29;20137;-90
2022/09/18 11:37:42;;;;;;;4.23;1.40;;;14.50;99.90;;;;;;4901077;29;20386;-89
2022/09/18 11:40:23;;;;;;;3.92;1.15;;;14.50;99.90;;;;;;4916725;29;20375;-89
2022/09/18 11:42:52;;;;;;;4.97;1.23;;;14.50;99.90;;;;;;4920974;29;20043;-89
2022/09/18 11:45:36;;;;;;;5.20;1.23;;;14.50;99.90;;;;;;4920767;29;20028;-89
2022/09/18 11:48:24;;;;;;;8.05;1.70;;;14.50;99.90;;;;;;4919911;29;20437;-88
2022/09/18 11:51:03;;;;;;;5.32;1.02;;;14.50;99.90;;;;;;4903902;29;20083;-89
2022/09/18 11:53:34;;;;;;;7.75;1.13;;;14.50;99.90;;;;;;4903871;29;20036;-89
2022/09/18 11:56:24;;;;;;;5.80;1.30;;;14.50;99.90;;;;;;4903975;29;20075;-89
2022/09/18 11:59:02;;;;;;;7.17;1.33;;;14.50;99.90;;;;;;4906625;29;20051;-89
2022/09/18 12:01:40;;;;;;;4.15;1.00;;;14.50;99.90;;;;;;4903941;29;20088;-89
2022/09/18 12:04:25;;;;;;;4.35;1.00;;;14.50;99.90;;;;;;4920627;29;20036;-89
2022/09/18 12:07:15;;;;;;;6.65;1.10;;;14.50;99.90;;;;;;4903440;29;20075;-89
2022/09/18 12:09:57;;;;;;;4.25;0.90;;;14.50;99.90;;;;;;4919372;29;20040;-89
2022/09/18 12:12:29;;;;;;;7.85;1.30;;;14.50;99.90;;;;;;4903580;29;20032;-89
2022/09/18 12:14:58;;;;;;;5.07;1.13;;;14.50;99.90;;;;;;4903562;29;20088;-88
2022/09/18 12:17:55;;;;;;;6.90;1.23;;;14.50;99.90;;;;;;4921696;29;20095;-89
2022/09/18 12:20:29;;;;;;;5.72;1.40;;;14.50;99.90;;;;;;4904192;29;20484;-90
2022/09/18 12:23:00;;;;;;;5.75;1.38;;;14.50;99.90;;;;;;4903762;29;20115;-89
2022/09/18 12:25:51;;;;;;;5.07;1.40;;;14.50;99.90;;;;;;4904063;29;20032;-89
2022/09/18 12:28:37;;;;;;;7.55;1.17;;;14.50;99.90;;;;;;4920565;29;20028;-89
2022/09/18 12:31:28;;;;;;;4.95;1.10;;;14.50;99.90;;;;;;4920811;29;20385;-89
2022/09/18 12:34:15;;;;;;;5.07;1.38;;;14.50;99.90;;;;;;4918933;29;20075;-89
2022/09/18 12:37:05;;;;;;;6.82;1.40;;;14.50;99.90;;;;;;4902926;29;20063;-89
2022/09/18 12:39:49;;;;;;;8.73;1.17;;;14.50;99.90;;;;;;4899127;29;20044;-89
2022/09/18 12:42:23;;;;;;;4.72;1.35;;;14.40;99.90;;;;;;4901014;29;20067;-88
2022/09/18 12:44:58;;;;;;;5.53;1.17;;;14.40;99.90;;;;;;4915832;29;20123;-89
2022/09/18 12:48:00;;;;;;;9.88;1.23;;;14.40;99.90;;;;;;4901227;29;20024;-89
2022/09/18 12:50:38;;;;;;;4.25;1.20;;;14.40;99.90;;;;;;4915459;29;20446;-89
2022/09/18 12:53:19;;;;;;;8.10;2.55;;;14.40;99.90;;;;;;4915557;29;20077;-89
2022/09/18 12:56:00;;;;;;;7.95;2.33;;;14.40;99.90;;;;;;4900486;29;20033;-89
2022/09/18 12:58:28;;;;;;;6.60;1.55;;;14.40;99.90;;;;;;4915452;29;20484;-90
2022/09/18 13:00:58;;;;;;;4.43;0.75;;;14.40;99.90;;;;;;4900527;29;20036;-89
2022/09/18 13:03:26;;;;;;;4.50;1.40;;;14.40;99.90;;;;;;4899278;29;20032;-90
2022/09/18 13:06:12;;;;;;;4.55;1.10;;;14.40;99.90;;;;;;4915114;29;20036;-89
2022/09/18 13:08:54;;;;;;;7.95;2.13;;;14.40;99.90;;;;;;4899286;29;20028;-89
2022/09/18 13:11:38;;;;;;;5.35;1.10;;;14.40;99.90;;;;;;4899863;29;20072;-89
2022/09/18 13:14:23;;;;;;;3.35;0.80;;;14.40;99.90;;;;;;4901683;29;20029;-90